sensor_id;sensor_type;location;lat;lon;timestamp;P1;durP1;ratioP1;P2;durP2;ratioP2
37273;SDS011;23161;51.250;5.554;2023-02-04T00:00:46;16.13;;;5.97;;
37273;SDS011;23161;51.250;5.554;2023-02-04T00:03:13;10.15;;;3.80;;
37273;SDS011;23161;51.250;5.554;2023-02-04T00:05:39;12.88;;;6.60;;
37273;SDS011;23161;51.250;5.554;2023-02-04T00:08:05;19.83;;;4.65;;
37273;SDS011;23161;51.250;5.554;2023-02-04T00:10:31;16.02;;;3.65;;
37273;SDS011;23161;51.250;5.554;2023-02-04T00:12:57;9.93;;;3.45;;
37273;SDS011;23161;51.250;5.554;2023-02-04T00:15:23;9.45;;;3.53;;
37273;SDS011;23161;51.250;5.554;2023-02-04T00:17:49;17.13;;;3.85;;
37273;SDS011;23161;51.250;5.554;2023-02-04T00:20:15;8.15;;;2.70;;
37273;SDS011;23161;51.250;5.554;2023-02-04T00:22:42;3.97;;;2.97;;
37273;SDS011;23161;51.250;5.554;2023-02-04T00:25:08;8.38;;;3.65;;
37273;SDS011;23161;51.250;5.554;2023-02-04T00:27:34;11.85;;;3.92;;
37273;SDS011;23161;51.250;5.554;2023-02-04T00:29:59;8.30;;;4.80;;
37273;SDS011;23161;51.250;5.554;2023-02-04T00:32:25;12.98;;;4.88;;
37273;SDS011;23161;51.250;5.554;2023-02-04T00:34:52;11.68;;;3.20;;
37273;SDS011;23161;51.250;5.554;2023-02-04T00:37:18;12.23;;;3.47;;
37273;SDS011;23161;51.250;5.554;2023-02-04T00:39:45;5.32;;;3.70;;
37273;SDS011;23161;51.250;5.554;2023-02-04T00:42:11;19.80;;;4.60;;
37273;SDS011;23161;51.250;5.554;2023-02-04T00:44:36;8.25;;;4.40;;
37273;SDS011;23161;51.250;5.554;2023-02-04T00:47:03;8.63;;;4.38;;
37273;SDS011;23161;51.250;5.554;2023-02-04T00:49:29;7.25;;;3.58;;
37273;SDS011;23161;51.250;5.554;2023-02-04T00:51:55;17.80;;;5.22;;
37273;SDS011;23161;51.250;5.554;2023-02-04T00:54:20;8.27;;;4.43;;
37273;SDS011;23161;51.250;5.554;2023-02-04T00:56:46;11.55;;;4.05;;
37273;SDS011;23161;51.250;5.554;2023-02-04T00:59:12;15.48;;;5.05;;
37273;SDS011;23161;51.250;5.554;2023-02-04T01:01:39;5.30;;;2.80;;
37273;SDS011;23161;51.250;5.554;2023-02-04T01:04:05;11.05;;;4.85;;
37273;SDS011;23161;51.250;5.554;2023-02-04T01:06:31;8.85;;;4.30;;
37273;SDS011;23161;51.250;5.554;2023-02-04T01:08:56;13.75;;;5.25;;
37273;SDS011;23161;51.250;5.554;2023-02-04T01:11:22;5.57;;;3.67;;
37273;SDS011;23161;51.250;5.554;2023-02-04T01:13:48;6.50;;;3.72;;
37273;SDS011;23161;51.250;5.554;2023-02-04T01:16:14;3.05;;;2.70;;
37273;SDS011;23161;51.250;5.554;2023-02-04T01:18:42;8.95;;;3.80;;
37273;SDS011;23161;51.250;5.554;2023-02-04T01:21:09;9.50;;;4.43;;
37273;SDS011;23161;51.250;5.554;2023-02-04T01:23:35;9.90;;;3.28;;
37273;SDS011;23161;51.250;5.554;2023-02-04T01:26:00;4.53;;;3.05;;
37273;SDS011;23161;51.250;5.554;2023-02-04T01:28:27;5.68;;;2.30;;
37273;SDS011;23161;51.250;5.554;2023-02-04T01:30:53;10.82;;;3.05;;
37273;SDS011;23161;51.250;5.554;2023-02-04T01:33:19;9.98;;;3.20;;
37273;SDS011;23161;51.250;5.554;2023-02-04T01:35:46;6.50;;;3.33;;
37273;SDS011;23161;51.250;5.554;2023-02-04T01:38:12;8.55;;;4.35;;
37273;SDS011;23161;51.250;5.554;2023-02-04T01:40:38;6.68;;;4.95;;
37273;SDS011;23161;51.250;5.554;2023-02-04T01:43:05;9.85;;;4.40;;
37273;SDS011;23161;51.250;5.554;2023-02-04T01:45:31;9.98;;;5.32;;
37273;SDS011;23161;51.250;5.554;2023-02-04T01:48:00;6.88;;;2.22;;
37273;SDS011;23161;51.250;5.554;2023-02-04T01:50:28;8.23;;;3.58;;
37273;SDS011;23161;51.250;5.554;2023-02-04T01:52:54;10.95;;;4.65;;
37273;SDS011;23161;51.250;5.554;2023-02-04T01:55:21;14.07;;;4.65;;
37273;SDS011;23161;51.250;5.554;2023-02-04T01:57:50;10.73;;;3.80;;
37273;SDS011;23161;51.250;5.554;2023-02-04T02:00:23;10.35;;;2.45;;
37273;SDS011;23161;51.250;5.554;2023-02-04T02:02:51;14.57;;;3.03;;
37273;SDS011;23161;51.250;5.554;2023-02-04T02:05:26;9.43;;;4.20;;
37273;SDS011;23161;51.250;5.554;2023-02-04T02:08:02;6.72;;;5.25;;
37273;SDS011;23161;51.250;5.554;2023-02-04T02:10:30;8.85;;;3.92;;
37273;SDS011;23161;51.250;5.554;2023-02-04T02:12:57;13.70;;;6.35;;
37273;SDS011;23161;51.250;5.554;2023-02-04T02:15:23;9.88;;;4.32;;
37273;SDS011;23161;51.250;5.554;2023-02-04T02:17:50;5.30;;;3.28;;
37273;SDS011;23161;51.250;5.554;2023-02-04T02:20:18;8.50;;;4.70;;
37273;SDS011;23161;51.250;5.554;2023-02-04T02:25:16;10.25;;;4.40;;
37273;SDS011;23161;51.250;5.554;2023-02-04T02:27:42;24.45;;;12.10;;
37273;SDS011;23161;51.250;5.554;2023-02-04T02:30:08;15.82;;;8.88;;
37273;SDS011;23161;51.250;5.554;2023-02-04T02:32:36;22.08;;;11.35;;
37273;SDS011;23161;51.250;5.554;2023-02-04T02:35:02;23.42;;;11.35;;
37273;SDS011;23161;51.250;5.554;2023-02-04T02:37:29;19.10;;;9.00;;
37273;SDS011;23161;51.250;5.554;2023-02-04T02:39:56;9.20;;;5.30;;
37273;SDS011;23161;51.250;5.554;2023-02-04T02:42:22;7.45;;;4.93;;
37273;SDS011;23161;51.250;5.554;2023-02-04T02:44:48;9.20;;;4.65;;
37273;SDS011;23161;51.250;5.554;2023-02-04T02:47:16;9.13;;;4.35;;
37273;SDS011;23161;51.250;5.554;2023-02-04T02:49:44;12.63;;;5.03;;
37273;SDS011;23161;51.250;5.554;2023-02-04T02:52:15;18.13;;;10.90;;
37273;SDS011;23161;51.250;5.554;2023-02-04T02:54:41;23.85;;;12.88;;
37273;SDS011;23161;51.250;5.554;2023-02-04T02:57:21;17.63;;;10.17;;
37273;SDS011;23161;51.250;5.554;2023-02-04T02:59:47;10.65;;;9.07;;
37273;SDS011;23161;51.250;5.554;2023-02-04T03:02:15;10.07;;;6.30;;
37273;SDS011;23161;51.250;5.554;2023-02-04T03:04:47;9.40;;;6.88;;
37273;SDS011;23161;51.250;5.554;2023-02-04T03:07:16;11.13;;;7.57;;
37273;SDS011;23161;51.250;5.554;2023-02-04T03:09:43;19.13;;;8.45;;
37273;SDS011;23161;51.250;5.554;2023-02-04T03:12:09;12.65;;;5.68;;
37273;SDS011;23161;51.250;5.554;2023-02-04T03:14:35;7.68;;;6.35;;
37273;SDS011;23161;51.250;5.554;2023-02-04T03:17:03;7.70;;;5.40;;
37273;SDS011;23161;51.250;5.554;2023-02-04T03:19:31;12.80;;;5.50;;
37273;SDS011;23161;51.250;5.554;2023-02-04T03:21:58;6.18;;;3.60;;
37273;SDS011;23161;51.250;5.554;2023-02-04T03:24:24;5.53;;;4.70;;
37273;SDS011;23161;51.250;5.554;2023-02-04T03:26:50;11.68;;;5.68;;
37273;SDS011;23161;51.250;5.554;2023-02-04T03:29:16;8.13;;;6.05;;
37273;SDS011;23161;51.250;5.554;2023-02-04T03:31:42;7.50;;;5.22;;
37273;SDS011;23161;51.250;5.554;2023-02-04T03:34:08;4.63;;;3.90;;
37273;SDS011;23161;51.250;5.554;2023-02-04T03:36:34;7.00;;;4.22;;
37273;SDS011;23161;51.250;5.554;2023-02-04T03:39:01;11.55;;;5.07;;
37273;SDS011;23161;51.250;5.554;2023-02-04T03:41:27;7.57;;;6.03;;
37273;SDS011;23161;51.250;5.554;2023-02-04T03:43:53;8.88;;;4.93;;
37273;SDS011;23161;51.250;5.554;2023-02-04T03:46:20;9.60;;;3.28;;
37273;SDS011;23161;51.250;5.554;2023-02-04T03:48:48;6.70;;;5.43;;
37273;SDS011;23161;51.250;5.554;2023-02-04T03:51:13;6.38;;;3.78;;
37273;SDS011;23161;51.250;5.554;2023-02-04T03:53:39;11.25;;;4.32;;
37273;SDS011;23161;51.250;5.554;2023-02-04T03:56:05;11.10;;;5.60;;
37273;SDS011;23161;51.250;5.554;2023-02-04T03:58:31;5.35;;;4.85;;
37273;SDS011;23161;51.250;5.554;2023-02-04T04:00:58;13.05;;;4.32;;
37273;SDS011;23161;51.250;5.554;2023-02-04T04:03:24;9.23;;;5.63;;
37273;SDS011;23161;51.250;5.554;2023-02-04T04:05:49;10.07;;;5.20;;
37273;SDS011;23161;51.250;5.554;2023-02-04T04:08:16;6.50;;;4.80;;
37273;SDS011;23161;51.250;5.554;2023-02-04T04:10:42;5.45;;;4.93;;
37273;SDS011;23161;51.250;5.554;2023-02-04T04:13:08;8.43;;;5.68;;
37273;SDS011;23161;51.250;5.554;2023-02-04T04:15:33;11.07;;;5.63;;
37273;SDS011;23161;51.250;5.554;2023-02-04T04:17:59;5.57;;;4.75;;
37273;SDS011;23161;51.250;5.554;2023-02-04T04:20:26;7.35;;;5.20;;
37273;SDS011;23161;51.250;5.554;2023-02-04T04:22:53;7.45;;;5.40;;
37273;SDS011;23161;51.250;5.554;2023-02-04T04:25:19;9.07;;;5.68;;
37273;SDS011;23161;51.250;5.554;2023-02-04T04:27:45;12.82;;;5.38;;
37273;SDS011;23161;51.250;5.554;2023-02-04T04:30:11;6.78;;;4.75;;
37273;SDS011;23161;51.250;5.554;2023-02-04T04:32:36;9.40;;;5.97;;
37273;SDS011;23161;51.250;5.554;2023-02-04T04:35:02;9.82;;;5.03;;
37273;SDS011;23161;51.250;5.554;2023-02-04T04:37:28;11.18;;;8.50;;
37273;SDS011;23161;51.250;5.554;2023-02-04T04:39:55;22.50;;;6.68;;
37273;SDS011;23161;51.250;5.554;2023-02-04T04:42:21;7.57;;;5.43;;
37273;SDS011;23161;51.250;5.554;2023-02-04T04:44:46;14.10;;;7.18;;
37273;SDS011;23161;51.250;5.554;2023-02-04T04:47:13;13.20;;;5.80;;
37273;SDS011;23161;51.250;5.554;2023-02-04T04:49:39;13.38;;;8.75;;
37273;SDS011;23161;51.250;5.554;2023-02-04T04:52:04;6.95;;;6.13;;
37273;SDS011;23161;51.250;5.554;2023-02-04T04:54:30;14.55;;;8.10;;
37273;SDS011;23161;51.250;5.554;2023-02-04T04:56:56;9.02;;;6.35;;
37273;SDS011;23161;51.250;5.554;2023-02-04T04:59:22;19.38;;;9.65;;
37273;SDS011;23161;51.250;5.554;2023-02-04T05:01:47;13.63;;;8.93;;
37273;SDS011;23161;51.250;5.554;2023-02-04T05:04:13;18.30;;;9.65;;
37273;SDS011;23161;51.250;5.554;2023-02-04T05:06:39;11.80;;;8.50;;
37273;SDS011;23161;51.250;5.554;2023-02-04T05:09:05;19.90;;;11.32;;
37273;SDS011;23161;51.250;5.554;2023-02-04T05:11:30;17.00;;;9.05;;
37273;SDS011;23161;51.250;5.554;2023-02-04T05:13:56;15.20;;;8.07;;
37273;SDS011;23161;51.250;5.554;2023-02-04T05:16:22;14.10;;;9.55;;
37273;SDS011;23161;51.250;5.554;2023-02-04T05:18:48;14.48;;;9.25;;
37273;SDS011;23161;51.250;5.554;2023-02-04T05:21:14;13.07;;;8.13;;
37273;SDS011;23161;51.250;5.554;2023-02-04T05:23:40;24.35;;;10.05;;
37273;SDS011;23161;51.250;5.554;2023-02-04T05:26:06;12.30;;;7.82;;
37273;SDS011;23161;51.250;5.554;2023-02-04T05:28:33;14.73;;;8.15;;
37273;SDS011;23161;51.250;5.554;2023-02-04T05:30:58;26.70;;;9.45;;
37273;SDS011;23161;51.250;5.554;2023-02-04T05:33:24;17.42;;;7.88;;
37273;SDS011;23161;51.250;5.554;2023-02-04T05:35:50;15.40;;;12.35;;
37273;SDS011;23161;51.250;5.554;2023-02-04T05:38:16;9.05;;;7.43;;
37273;SDS011;23161;51.250;5.554;2023-02-04T05:40:41;9.07;;;7.53;;
37273;SDS011;23161;51.250;5.554;2023-02-04T05:43:07;18.27;;;9.43;;
37273;SDS011;23161;51.250;5.554;2023-02-04T05:45:33;18.48;;;7.10;;
37273;SDS011;23161;51.250;5.554;2023-02-04T05:47:59;14.25;;;7.63;;
37273;SDS011;23161;51.250;5.554;2023-02-04T05:50:25;14.65;;;6.47;;
37273;SDS011;23161;51.250;5.554;2023-02-04T05:53:06;12.35;;;8.00;;
37273;SDS011;23161;51.250;5.554;2023-02-04T05:55:32;19.33;;;8.55;;
37273;SDS011;23161;51.250;5.554;2023-02-04T05:57:58;9.10;;;7.68;;
37273;SDS011;23161;51.250;5.554;2023-02-04T06:00:24;9.63;;;7.97;;
37273;SDS011;23161;51.250;5.554;2023-02-04T06:02:50;8.55;;;7.53;;
37273;SDS011;23161;51.250;5.554;2023-02-04T06:05:16;15.45;;;8.57;;
37273;SDS011;23161;51.250;5.554;2023-02-04T06:07:43;10.95;;;8.98;;
37273;SDS011;23161;51.250;5.554;2023-02-04T06:10:09;14.32;;;9.40;;
37273;SDS011;23161;51.250;5.554;2023-02-04T06:12:36;12.60;;;10.00;;
37273;SDS011;23161;51.250;5.554;2023-02-04T06:15:01;12.90;;;7.53;;
37273;SDS011;23161;51.250;5.554;2023-02-04T06:17:27;17.52;;;8.60;;
37273;SDS011;23161;51.250;5.554;2023-02-04T06:19:53;15.15;;;10.82;;
37273;SDS011;23161;51.250;5.554;2023-02-04T06:22:20;23.80;;;12.98;;
37273;SDS011;23161;51.250;5.554;2023-02-04T06:24:48;20.58;;;12.27;;
37273;SDS011;23161;51.250;5.554;2023-02-04T06:27:14;23.73;;;10.95;;
37273;SDS011;23161;51.250;5.554;2023-02-04T06:29:51;44.40;;;12.45;;
37273;SDS011;23161;51.250;5.554;2023-02-04T06:32:18;32.55;;;11.60;;
37273;SDS011;23161;51.250;5.554;2023-02-04T06:34:44;15.00;;;9.02;;
37273;SDS011;23161;51.250;5.554;2023-02-04T06:37:11;13.10;;;8.45;;
37273;SDS011;23161;51.250;5.554;2023-02-04T06:39:37;31.83;;;8.80;;
37273;SDS011;23161;51.250;5.554;2023-02-04T06:42:03;14.00;;;9.23;;
37273;SDS011;23161;51.250;5.554;2023-02-04T06:44:29;22.83;;;11.98;;
37273;SDS011;23161;51.250;5.554;2023-02-04T06:46:56;13.55;;;9.13;;
37273;SDS011;23161;51.250;5.554;2023-02-04T06:49:22;14.88;;;9.38;;
37273;SDS011;23161;51.250;5.554;2023-02-04T06:51:49;17.52;;;10.40;;
37273;SDS011;23161;51.250;5.554;2023-02-04T06:54:15;21.15;;;13.98;;
37273;SDS011;23161;51.250;5.554;2023-02-04T06:56:41;19.55;;;13.00;;
37273;SDS011;23161;51.250;5.554;2023-02-04T06:59:08;15.27;;;11.30;;
37273;SDS011;23161;51.250;5.554;2023-02-04T07:01:34;21.05;;;12.23;;
37273;SDS011;23161;51.250;5.554;2023-02-04T07:04:00;28.05;;;14.60;;
37273;SDS011;23161;51.250;5.554;2023-02-04T07:06:26;21.77;;;12.48;;
37273;SDS011;23161;51.250;5.554;2023-02-04T07:08:52;21.00;;;11.90;;
37273;SDS011;23161;51.250;5.554;2023-02-04T07:11:18;25.17;;;14.57;;
37273;SDS011;23161;51.250;5.554;2023-02-04T07:13:44;24.90;;;12.07;;
37273;SDS011;23161;51.250;5.554;2023-02-04T07:16:10;18.15;;;11.57;;
37273;SDS011;23161;51.250;5.554;2023-02-04T07:18:35;17.77;;;10.15;;
37273;SDS011;23161;51.250;5.554;2023-02-04T07:21:02;28.23;;;13.85;;
37273;SDS011;23161;51.250;5.554;2023-02-04T07:23:28;22.55;;;13.00;;
37273;SDS011;23161;51.250;5.554;2023-02-04T07:25:53;14.77;;;11.88;;
37273;SDS011;23161;51.250;5.554;2023-02-04T07:28:24;25.67;;;16.67;;
37273;SDS011;23161;51.250;5.554;2023-02-04T07:30:50;22.38;;;12.35;;
37273;SDS011;23161;51.250;5.554;2023-02-04T07:33:16;17.98;;;12.25;;
37273;SDS011;23161;51.250;5.554;2023-02-04T07:35:42;14.63;;;13.23;;
37273;SDS011;23161;51.250;5.554;2023-02-04T07:38:08;16.70;;;10.63;;
37273;SDS011;23161;51.250;5.554;2023-02-04T07:40:34;12.40;;;9.95;;
37273;SDS011;23161;51.250;5.554;2023-02-04T07:43:00;14.65;;;12.07;;
37273;SDS011;23161;51.250;5.554;2023-02-04T07:45:27;17.30;;;11.25;;
37273;SDS011;23161;51.250;5.554;2023-02-04T07:47:53;14.32;;;11.77;;
37273;SDS011;23161;51.250;5.554;2023-02-04T07:50:19;16.48;;;12.15;;
37273;SDS011;23161;51.250;5.554;2023-02-04T07:52:44;19.05;;;12.68;;
37273;SDS011;23161;51.250;5.554;2023-02-04T07:55:10;24.50;;;12.98;;
37273;SDS011;23161;51.250;5.554;2023-02-04T07:57:36;18.33;;;12.57;;
37273;SDS011;23161;51.250;5.554;2023-02-04T08:00:03;18.45;;;12.35;;
37273;SDS011;23161;51.250;5.554;2023-02-04T08:02:37;16.65;;;11.80;;
37273;SDS011;23161;51.250;5.554;2023-02-04T08:05:04;17.35;;;12.10;;
37273;SDS011;23161;51.250;5.554;2023-02-04T08:07:30;14.75;;;11.75;;
37273;SDS011;23161;51.250;5.554;2023-02-04T08:09:56;17.63;;;11.60;;
37273;SDS011;23161;51.250;5.554;2023-02-04T08:12:22;14.70;;;11.13;;
37273;SDS011;23161;51.250;5.554;2023-02-04T08:14:48;18.05;;;12.82;;
37273;SDS011;23161;51.250;5.554;2023-02-04T08:17:14;21.00;;;11.23;;
37273;SDS011;23161;51.250;5.554;2023-02-04T08:19:40;17.05;;;13.23;;
37273;SDS011;23161;51.250;5.554;2023-02-04T08:22:05;23.98;;;13.68;;
37273;SDS011;23161;51.250;5.554;2023-02-04T08:24:31;20.90;;;12.60;;
37273;SDS011;23161;51.250;5.554;2023-02-04T08:26:57;14.27;;;10.73;;
37273;SDS011;23161;51.250;5.554;2023-02-04T08:29:23;14.73;;;12.48;;
37273;SDS011;23161;51.250;5.554;2023-02-04T08:31:52;14.82;;;11.02;;
37273;SDS011;23161;51.250;5.554;2023-02-04T08:34:18;15.85;;;11.10;;
37273;SDS011;23161;51.250;5.554;2023-02-04T08:36:44;28.92;;;18.23;;
37273;SDS011;23161;51.250;5.554;2023-02-04T08:39:10;17.67;;;15.88;;
37273;SDS011;23161;51.250;5.554;2023-02-04T08:41:37;19.38;;;14.48;;
37273;SDS011;23161;51.250;5.554;2023-02-04T08:44:03;14.45;;;12.93;;
37273;SDS011;23161;51.250;5.554;2023-02-04T08:46:29;12.05;;;10.45;;
37273;SDS011;23161;51.250;5.554;2023-02-04T08:48:55;14.70;;;10.45;;
37273;SDS011;23161;51.250;5.554;2023-02-04T08:51:21;12.48;;;9.40;;
37273;SDS011;23161;51.250;5.554;2023-02-04T08:53:47;14.30;;;12.18;;
37273;SDS011;23161;51.250;5.554;2023-02-04T08:56:13;14.38;;;10.32;;
37273;SDS011;23161;51.250;5.554;2023-02-04T08:58:44;14.68;;;12.70;;
37273;SDS011;23161;51.250;5.554;2023-02-04T09:01:12;15.85;;;11.88;;
37273;SDS011;23161;51.250;5.554;2023-02-04T09:03:38;12.57;;;11.13;;
37273;SDS011;23161;51.250;5.554;2023-02-04T09:06:05;16.02;;;10.90;;
37273;SDS011;23161;51.250;5.554;2023-02-04T09:08:31;13.63;;;9.50;;
37273;SDS011;23161;51.250;5.554;2023-02-04T09:10:57;14.80;;;12.50;;
37273;SDS011;23161;51.250;5.554;2023-02-04T09:13:23;19.58;;;12.50;;
37273;SDS011;23161;51.250;5.554;2023-02-04T09:15:49;14.55;;;9.90;;
37273;SDS011;23161;51.250;5.554;2023-02-04T09:18:17;22.55;;;10.55;;
37273;SDS011;23161;51.250;5.554;2023-02-04T09:20:47;22.65;;;20.27;;
37273;SDS011;23161;51.250;5.554;2023-02-04T09:23:13;11.93;;;10.80;;
37273;SDS011;23161;51.250;5.554;2023-02-04T09:25:40;23.23;;;13.25;;
37273;SDS011;23161;51.250;5.554;2023-02-04T09:28:08;17.40;;;12.73;;
37273;SDS011;23161;51.250;5.554;2023-02-04T09:30:35;16.30;;;11.77;;
37273;SDS011;23161;51.250;5.554;2023-02-04T09:33:02;18.42;;;11.68;;
37273;SDS011;23161;51.250;5.554;2023-02-04T09:35:28;14.45;;;11.77;;
37273;SDS011;23161;51.250;5.554;2023-02-04T09:37:54;19.55;;;14.38;;
37273;SDS011;23161;51.250;5.554;2023-02-04T09:40:19;30.23;;;13.82;;
37273;SDS011;23161;51.250;5.554;2023-02-04T09:42:47;19.98;;;13.20;;
37273;SDS011;23161;51.250;5.554;2023-02-04T09:45:15;22.88;;;13.85;;
37273;SDS011;23161;51.250;5.554;2023-02-04T09:47:44;23.38;;;13.55;;
37273;SDS011;23161;51.250;5.554;2023-02-04T09:50:19;22.98;;;14.93;;
37273;SDS011;23161;51.250;5.554;2023-02-04T09:52:48;32.33;;;14.32;;
37273;SDS011;23161;51.250;5.554;2023-02-04T09:55:16;22.52;;;15.57;;
37273;SDS011;23161;51.250;5.554;2023-02-04T09:57:45;21.48;;;12.50;;
37273;SDS011;23161;51.250;5.554;2023-02-04T10:02:43;22.42;;;12.60;;
37273;SDS011;23161;51.250;5.554;2023-02-04T10:05:13;23.40;;;16.70;;
37273;SDS011;23161;51.250;5.554;2023-02-04T10:07:41;16.23;;;10.38;;
37273;SDS011;23161;51.250;5.554;2023-02-04T10:10:13;19.77;;;13.05;;
37273;SDS011;23161;51.250;5.554;2023-02-04T10:12:42;21.08;;;12.80;;
37273;SDS011;23161;51.250;5.554;2023-02-04T10:15:13;25.50;;;14.57;;
37273;SDS011;23161;51.250;5.554;2023-02-04T10:17:40;15.52;;;12.70;;
37273;SDS011;23161;51.250;5.554;2023-02-04T10:20:16;18.75;;;14.48;;
37273;SDS011;23161;51.250;5.554;2023-02-04T10:22:44;39.58;;;20.58;;
37273;SDS011;23161;51.250;5.554;2023-02-04T10:25:14;26.73;;;12.30;;
37273;SDS011;23161;51.250;5.554;2023-02-04T10:27:48;24.65;;;13.43;;
37273;SDS011;23161;51.250;5.554;2023-02-04T10:30:26;13.38;;;8.95;;
37273;SDS011;23161;51.250;5.554;2023-02-04T10:35:51;18.65;;;13.57;;
37273;SDS011;23161;51.250;5.554;2023-02-04T10:38:18;17.30;;;12.80;;
37273;SDS011;23161;51.250;5.554;2023-02-04T10:40:44;23.55;;;10.05;;
37273;SDS011;23161;51.250;5.554;2023-02-04T10:43:20;25.02;;;9.90;;
37273;SDS011;23161;51.250;5.554;2023-02-04T10:46:08;17.52;;;11.45;;
37273;SDS011;23161;51.250;5.554;2023-02-04T10:48:40;19.02;;;12.05;;
37273;SDS011;23161;51.250;5.554;2023-02-04T10:51:07;11.63;;;7.88;;
37273;SDS011;23161;51.250;5.554;2023-02-04T10:53:36;18.73;;;9.38;;
37273;SDS011;23161;51.250;5.554;2023-02-04T10:56:21;15.32;;;9.10;;
37273;SDS011;23161;51.250;5.554;2023-02-04T10:58:47;15.57;;;9.90;;
37273;SDS011;23161;51.250;5.554;2023-02-04T11:01:14;15.82;;;9.23;;
37273;SDS011;23161;51.250;5.554;2023-02-04T11:03:41;19.20;;;10.10;;
37273;SDS011;23161;51.250;5.554;2023-02-04T11:06:11;17.67;;;7.88;;
37273;SDS011;23161;51.250;5.554;2023-02-04T11:08:39;16.92;;;9.57;;
37273;SDS011;23161;51.250;5.554;2023-02-04T11:11:07;17.17;;;8.57;;
37273;SDS011;23161;51.250;5.554;2023-02-04T11:18:47;15.85;;;7.90;;
37273;SDS011;23161;51.250;5.554;2023-02-04T11:22:02;12.70;;;7.38;;
37273;SDS011;23161;51.250;5.554;2023-02-04T11:24:03;18.77;;;7.65;;
37273;SDS011;23161;51.250;5.554;2023-02-04T11:26:36;21.90;;;9.60;;
37273;SDS011;23161;51.250;5.554;2023-02-04T11:31:43;29.17;;;5.93;;
37273;SDS011;23161;51.250;5.554;2023-02-04T11:45:28;19.75;;;7.47;;
37273;SDS011;23161;51.250;5.554;2023-02-04T11:47:37;23.00;;;7.07;;
37273;SDS011;23161;51.250;5.554;2023-02-04T11:50:09;15.40;;;5.72;;
37273;SDS011;23161;51.250;5.554;2023-02-04T11:52:47;23.67;;;7.32;;
37273;SDS011;23161;51.250;5.554;2023-02-04T11:55:13;25.58;;;7.80;;
37273;SDS011;23161;51.250;5.554;2023-02-04T11:57:40;18.05;;;8.07;;
37273;SDS011;23161;51.250;5.554;2023-02-04T12:00:12;15.13;;;6.72;;
37273;SDS011;23161;51.250;5.554;2023-02-04T12:05:16;24.70;;;8.48;;
37273;SDS011;23161;51.250;5.554;2023-02-04T12:07:44;33.70;;;9.98;;
37273;SDS011;23161;51.250;5.554;2023-02-04T12:12:43;14.68;;;10.20;;
37273;SDS011;23161;51.250;5.554;2023-02-04T12:18:06;20.90;;;10.50;;
37273;SDS011;23161;51.250;5.554;2023-02-04T12:20:34;22.20;;;9.23;;
37273;SDS011;23161;51.250;5.554;2023-02-04T12:23:01;17.30;;;7.85;;
37273;SDS011;23161;51.250;5.554;2023-02-04T12:25:27;18.27;;;8.13;;
37273;SDS011;23161;51.250;5.554;2023-02-04T12:27:53;15.15;;;7.85;;
37273;SDS011;23161;51.250;5.554;2023-02-04T12:30:22;27.17;;;10.63;;
37273;SDS011;23161;51.250;5.554;2023-02-04T12:32:50;16.08;;;9.32;;
37273;SDS011;23161;51.250;5.554;2023-02-04T12:35:16;18.98;;;7.55;;
37273;SDS011;23161;51.250;5.554;2023-02-04T12:37:42;19.38;;;9.57;;
37273;SDS011;23161;51.250;5.554;2023-02-04T12:40:15;14.35;;;7.45;;
37273;SDS011;23161;51.250;5.554;2023-02-04T12:42:42;17.85;;;8.75;;
37273;SDS011;23161;51.250;5.554;2023-02-04T12:45:09;19.63;;;10.48;;
37273;SDS011;23161;51.250;5.554;2023-02-04T12:47:37;10.98;;;8.20;;
37273;SDS011;23161;51.250;5.554;2023-02-04T12:50:03;21.27;;;8.70;;
37273;SDS011;23161;51.250;5.554;2023-02-04T12:52:30;20.17;;;8.07;;
37273;SDS011;23161;51.250;5.554;2023-02-04T12:54:56;16.75;;;7.72;;
37273;SDS011;23161;51.250;5.554;2023-02-04T12:57:24;15.93;;;7.40;;
37273;SDS011;23161;51.250;5.554;2023-02-04T12:59:50;22.17;;;14.85;;
37273;SDS011;23161;51.250;5.554;2023-02-04T13:02:15;18.10;;;8.35;;
37273;SDS011;23161;51.250;5.554;2023-02-04T13:04:41;13.25;;;7.40;;
37273;SDS011;23161;51.250;5.554;2023-02-04T13:07:07;14.20;;;7.53;;
37273;SDS011;23161;51.250;5.554;2023-02-04T13:09:34;17.67;;;9.02;;
37273;SDS011;23161;51.250;5.554;2023-02-04T13:12:01;20.05;;;9.40;;
37273;SDS011;23161;51.250;5.554;2023-02-04T13:14:27;19.00;;;8.82;;
37273;SDS011;23161;51.250;5.554;2023-02-04T13:16:53;12.30;;;7.18;;
37273;SDS011;23161;51.250;5.554;2023-02-04T13:19:19;20.60;;;8.38;;
37273;SDS011;23161;51.250;5.554;2023-02-04T13:21:45;15.65;;;7.82;;
37273;SDS011;23161;51.250;5.554;2023-02-04T13:24:11;12.98;;;7.07;;
37273;SDS011;23161;51.250;5.554;2023-02-04T13:26:37;14.63;;;6.10;;
37273;SDS011;23161;51.250;5.554;2023-02-04T13:29:03;12.90;;;6.20;;
37273;SDS011;23161;51.250;5.554;2023-02-04T13:31:29;19.52;;;7.25;;
37273;SDS011;23161;51.250;5.554;2023-02-04T13:33:55;13.00;;;7.32;;
37273;SDS011;23161;51.250;5.554;2023-02-04T13:36:20;18.70;;;7.78;;
37273;SDS011;23161;51.250;5.554;2023-02-04T13:38:46;19.65;;;9.48;;
37273;SDS011;23161;51.250;5.554;2023-02-04T13:41:12;14.13;;;7.68;;
37273;SDS011;23161;51.250;5.554;2023-02-04T13:43:38;23.65;;;7.35;;
37273;SDS011;23161;51.250;5.554;2023-02-04T13:46:04;16.60;;;7.72;;
37273;SDS011;23161;51.250;5.554;2023-02-04T13:48:30;20.30;;;8.10;;
37273;SDS011;23161;51.250;5.554;2023-02-04T13:50:56;14.60;;;8.25;;
37273;SDS011;23161;51.250;5.554;2023-02-04T13:53:22;12.18;;;7.57;;
37273;SDS011;23161;51.250;5.554;2023-02-04T13:55:48;15.63;;;7.50;;
37273;SDS011;23161;51.250;5.554;2023-02-04T13:58:14;19.48;;;7.82;;
37273;SDS011;23161;51.250;5.554;2023-02-04T14:00:41;10.98;;;6.72;;
37273;SDS011;23161;51.250;5.554;2023-02-04T14:03:06;10.20;;;6.60;;
37273;SDS011;23161;51.250;5.554;2023-02-04T14:05:32;17.38;;;8.10;;
37273;SDS011;23161;51.250;5.554;2023-02-04T14:07:58;10.73;;;5.85;;
37273;SDS011;23161;51.250;5.554;2023-02-04T14:10:24;16.98;;;10.35;;
37273;SDS011;23161;51.250;5.554;2023-02-04T14:12:51;12.88;;;7.00;;
37273;SDS011;23161;51.250;5.554;2023-02-04T14:15:17;16.33;;;7.43;;
37273;SDS011;23161;51.250;5.554;2023-02-04T14:17:42;15.88;;;7.40;;
37273;SDS011;23161;51.250;5.554;2023-02-04T14:20:08;17.42;;;9.45;;
37273;SDS011;23161;51.250;5.554;2023-02-04T14:22:34;12.30;;;7.10;;
37273;SDS011;23161;51.250;5.554;2023-02-04T14:25:00;19.40;;;8.35;;
37273;SDS011;23161;51.250;5.554;2023-02-04T14:27:26;14.68;;;7.72;;
37273;SDS011;23161;51.250;5.554;2023-02-04T14:29:52;21.73;;;8.35;;
37273;SDS011;23161;51.250;5.554;2023-02-04T14:32:17;11.60;;;8.52;;
37273;SDS011;23161;51.250;5.554;2023-02-04T14:34:45;14.98;;;11.50;;
37273;SDS011;23161;51.250;5.554;2023-02-04T14:37:11;19.35;;;12.60;;
37273;SDS011;23161;51.250;5.554;2023-02-04T14:39:37;9.15;;;7.65;;
37273;SDS011;23161;51.250;5.554;2023-02-04T14:42:03;17.77;;;8.80;;
37273;SDS011;23161;51.250;5.554;2023-02-04T14:44:29;21.35;;;9.70;;
37273;SDS011;23161;51.250;5.554;2023-02-04T14:46:57;13.75;;;7.85;;
37273;SDS011;23161;51.250;5.554;2023-02-04T14:49:23;21.52;;;10.60;;
37273;SDS011;23161;51.250;5.554;2023-02-04T14:51:48;16.33;;;7.57;;
37273;SDS011;23161;51.250;5.554;2023-02-04T14:54:14;24.02;;;15.00;;
37273;SDS011;23161;51.250;5.554;2023-02-04T14:56:40;21.08;;;15.52;;
37273;SDS011;23161;51.250;5.554;2023-02-04T14:59:06;22.58;;;16.52;;
37273;SDS011;23161;51.250;5.554;2023-02-04T15:01:32;17.98;;;9.73;;
37273;SDS011;23161;51.250;5.554;2023-02-04T15:03:58;16.33;;;7.35;;
37273;SDS011;23161;51.250;5.554;2023-02-04T15:06:23;11.95;;;8.20;;